»·PEaware :: N17MA L88-KSBP

N17MA :: L88-KSBP

FLIGHT INFORMATION

Flight Status: Arrived
Operator: Privately registered:
United States
More flights under this callsign
Pilot: Diego M. (28112)
Aircraft: CESSNA 172 SKYHAWK
(C172)
More flights by this aircraft type
Origin: L88 New Cuyama
United States
Destination: KSBP San Luis Co Regl
United States
More flights between these airports :: More routes between these airports
Route: L88 KSBP
File this flight plan on PilotEdge
Remarks: CAT II
Altitude:
(Current/Filed)
4,500ft
Speed:
(Current/Filed)
120kts
Departed: 29-Mar-20 03:36 PM
Arrived: 29-Mar-20 04:05 PM
Distance/Time
Traveled:
50nm/0:29
Distance/Time
To Go:
Arrived

Flight Plot

Page will automatically refresh every two minutes.


Map Options




Map Legend


Flown Route
Filed Route
Departure Airport
Arrival Airport
Navaid (VOR, NDB)
Fix

Horizontal Profiles

Position Reports

Time Latitude Longitude Heading Altitude Ground
Speed
29-Mar-20 15:29 34.943848 -119.691035 119 2207ft 0kts
29-Mar-20 15:30 34.943848 -119.691035 119 2207ft 0kts
29-Mar-20 15:31 34.943848 -119.691035 119 2207ft 0kts
29-Mar-20 15:32 34.942706 -119.691200 204 2207ft 0kts
29-Mar-20 15:33 34.941979 -119.690528 117 2207ft 15kts
29-Mar-20 15:34 34.938278 -119.681545 124 2207ft 27kts
29-Mar-20 15:35 34.944609 -119.695375 298 2657ft 76kts
29-Mar-20 15:36 34.953007 -119.719828 288 3508ft 86kts
29-Mar-20 15:37 34.962014 -119.748190 298 4183ft 94kts
29-Mar-20 15:38 34.975595 -119.777682 298 4519ft 112kts
29-Mar-20 15:39 34.991751 -119.812409 298 4483ft 119kts
29-Mar-20 15:40 35.009059 -119.847175 301 4494ft 120kts
29-Mar-20 15:41 35.026962 -119.881849 301 4495ft 121kts
29-Mar-20 15:42 35.044953 -119.916571 301 4501ft 121kts
29-Mar-20 15:43 35.063054 -119.951381 302 4514ft 122kts
29-Mar-20 15:44 35.081193 -119.986406 302 4522ft 121kts
29-Mar-20 15:45 35.099384 -120.021289 302 4527ft 121kts
29-Mar-20 15:46 35.117516 -120.056124 302 4530ft 121kts
29-Mar-20 15:47 35.135593 -120.090774 302 4534ft 121kts
29-Mar-20 15:48 35.154675 -120.124776 306 4535ft 121kts
29-Mar-20 15:49 35.168073 -120.161620 281 4531ft 122kts
29-Mar-20 15:50 35.173245 -120.202788 280 4503ft 124kts
29-Mar-20 15:51 35.178442 -120.244109 281 4503ft 122kts
29-Mar-20 15:52 35.183654 -120.285168 281 4504ft 122kts
29-Mar-20 15:53 35.183394 -120.327213 270 4503ft 124kts
29-Mar-20 15:54 35.182713 -120.369234 278 4502ft 123kts
29-Mar-20 15:55 35.186134 -120.410921 278 4501ft 123kts
29-Mar-20 15:56 35.188535 -120.443558 278 4462ft 77kts
29-Mar-20 15:57 35.190543 -120.474080 276 4069ft 101kts
29-Mar-20 15:58 35.191761 -120.510544 276 3373ft 107kts
29-Mar-20 15:59 35.194341 -120.545839 284 2632ft 96kts
29-Mar-20 16:00 35.200868 -120.577582 299 1865ft 85kts
29-Mar-20 16:01 35.214528 -120.600815 305 1174ft 79kts
29-Mar-20 16:02 35.224754 -120.618744 307 558ft 46kts
29-Mar-20 16:03 35.232583 -120.632506 306 276ft 53kts
29-Mar-20 16:04 35.237508 -120.639815 6 215ft 0kts
29-Mar-20 16:05 35.237730 -120.639635 91 215ft 2kts
29-Mar-20 16:06 35.238129 -120.637938 89 215ft 0kts
29-Mar-20 16:07 35.238129 -120.637938 89 215ft 0kts
29-Mar-20 16:08 35.238129 -120.637938 89 215ft 0kts
29-Mar-20 16:09 35.238129 -120.637938 89 215ft 0kts
29-Mar-20 16:10 35.238129 -120.637938 89 215ft 0kts
29-Mar-20 16:11 35.238129 -120.637938 89 215ft 0kts
29-Mar-20 16:12 35.238129 -120.637938 89 215ft 0kts
29-Mar-20 16:13 35.238129 -120.637938 89 215ft 0kts
29-Mar-20 16:14 35.238129 -120.637938 89 215ft 0kts
29-Mar-20 16:15 35.238129 -120.637938 89 215ft 0kts
29-Mar-20 16:16 35.238129 -120.637938 89 215ft 0kts
29-Mar-20 16:17 35.238129 -120.637938 89 215ft 0kts
29-Mar-20 16:18 35.238129 -120.637938 89 215ft 0kts

Navigation Log

Ident Type
Flight plan parsing failed, navigation log unavailable